Wind Star — C6CA9 — position and weather

sailwx.info

Track history (hours):
 
Tides and Currents Weather Stations Pressure Air Temp Water Temp Dewpoint Dewpoint Depression Visibility Wind Speed Wind Dir Waves Ship Positions

Wind Star

Operator: Holland America Line

Last reported at 2019-Aug-18 02:02 UTC. Time now 2019-Aug-20 10:15 UTC.
Position N 37°24' E 025°55'.

Length 134 m; draft 4.1 m.

Type: Ship. MMSI: 309163000.

Date/timePositionNaut miles runAvg speedWind from/ knotsBaromVisibWave heightAir tempDewpointWater temp
2019-Aug-18 02:02N 37°24' E 025°55'011.8
2019-Aug-18 02:00N 37°24' E 025°55'611.1
2019-Aug-18 01:30N 37°23' E 025°48'811.2
2019-Aug-18 00:49N 37°22' E 025°38'411.4
2019-Aug-18 00:30N 37°22' E 025°34'511.1
2019-Aug-18 00:00N 37°21' E 025°27'611.3
2019-Aug-17 23:30N 37°21' E 025°20'611.6
2019-Aug-17 23:00N 37°20' E 025°13'611.4
2019-Aug-17 22:29N 37°20' E 025°05'511.3
2019-Aug-17 22:00N 37°19' E 024°58'611.3
2019-Aug-17 21:30N 37°20' E 024°51'510.7
2019-Aug-17 21:00N 37°22' E 024°45'4110.3
2019-Aug-17 17:01N 37°34' E 023°55'011.9
2019-Aug-17 17:00N 37°34' E 023°55'611.1
2019-Aug-17 16:28N 37°36' E 023°48'511.0
2019-Aug-17 16:00N 37°39' E 023°43'511.0
2019-Aug-17 15:30N 37°44' E 023°40'611.3
2019-Aug-17 15:00N 37°49' E 023°37'611.4
2019-Aug-17 14:30N 37°55' E 023°37'2 3.2
2019-Aug-17 13:59N 37°56' E 023°38'0 0.0
2019-Aug-17 13:26N 37°56' E 023°38'0 0.0
2019-Aug-17 12:56N 37°56' E 023°38'0 0.0
2019-Aug-17 12:29N 37°56' E 023°38'0 0.0
2019-Aug-17 11:59N 37°56' E 023°38'0 0.0
2019-Aug-17 11:29N 37°56' E 023°38'0 0.0
2019-Aug-17 10:59N 37°56' E 023°38'0 0.0
2019-Aug-17 10:29N 37°56' E 023°38'0 0.0
2019-Aug-17 09:59N 37°56' E 023°38'0 0.0
2019-Aug-17 09:29N 37°56' E 023°38'0 0.0
2019-Aug-17 08:59N 37°56' E 023°38'0 0.0
2019-Aug-17 08:29N 37°56' E 023°38'0 0.0
2019-Aug-17 07:59N 37°56' E 023°38'0 0.0
2019-Aug-17 07:29N 37°56' E 023°38'0 0.0
2019-Aug-17 06:59N 37°56' E 023°38'0 0.0
2019-Aug-17 06:29N 37°56' E 023°38'0 0.0
2019-Aug-17 05:59N 37°56' E 023°38'0 0.0
2019-Aug-17 05:29N 37°56' E 023°38'0 0.0
2019-Aug-17 04:59N 37°56' E 023°38'0 0.0
2019-Aug-17 04:23N 37°56' E 023°38'0 0.0
2019-Aug-17 03:53N 37°56' E 023°38'0 0.3
2019-Aug-17 03:30N 37°56' E 023°38'2 4.2
2019-Aug-17 03:01N 37°55' E 023°36'2 4.0
2019-Aug-17 02:31N 37°53' E 023°37'3 6.2
2019-Aug-17 02:00N 37°51' E 023°39'3 6.5
2019-Aug-17 01:30N 37°48' E 023°41'3 6.9
2019-Aug-17 01:01N 37°45' E 023°43'4 8.2
2019-Aug-17 00:31N 37°41' E 023°45'4 8.9
2019-Aug-17 00:01N 37°37' E 023°46'4 7.7
2019-Aug-16 23:29N 37°33' E 023°47'510.0
2019-Aug-16 22:59N 37°28' E 023°47'4810.7
2019-Aug-16 18:30N 36°44' E 023°21'5 9.7
2019-Aug-16 18:01N 36°40' E 023°22'1 1.5
2019-Aug-16 17:24N 36°39' E 023°23'5 7.7
2019-Aug-16 16:48N 36°35' E 023°26'7 9.5
2019-Aug-16 16:06N 36°35' E 023°18'110.9
2019-Aug-16 16:00N 36°35' E 023°17'  
2019-Aug-12 07:47N 37°40' E 025°51'411.4
2019-Aug-12 07:28N 37°39' E 025°47'511.2
2019-Aug-12 07:00N 37°39' E 025°40'510.8
2019-Aug-12 06:30N 37°38' E 025°34'5 9.6
2019-Aug-12 06:00N 37°35' E 025°28'4 8.7
2019-Aug-12 05:30N 37°33' E 025°24'4 8.5
2019-Aug-12 05:00N 37°31' E 025°19'3 6.0
2019-Aug-12 04:30N 37°28' E 025°18'1 1.9
2019-Aug-12 03:53N 37°27' E 025°19'2 5.7
2019-Aug-12 03:30N 37°28' E 025°16'5 9.8
2019-Aug-12 03:00N 37°27' E 025°10'4 8.6
2019-Aug-12 02:30N 37°25' E 025°05'4 8.9
2019-Aug-12 02:00N 37°23' E 025°01'4 8.8
2019-Aug-12 01:30N 37°20' E 024°56'5 9.8
2019-Aug-12 01:00N 37°19' E 024°50'77 9.8
2019-Aug-11 17:10N 37°09' E 023°14'210.6
2019-Aug-11 17:00N 37°09' E 023°12'610.8
2019-Aug-11 16:27N 37°08' E 023°05'711.0
2019-Aug-11 15:51N 37°14' E 023°01'2311.5
2019-Aug-11 13:53N 37°34' E 022°47'0 0.2
2019-Aug-11 13:02N 37°34' E 022°47'0 0.0
2019-Aug-11 09:08N 37°34' E 022°47'0 0.0
2019-Aug-11 08:32N 37°34' E 022°47'0 0.1
2019-Aug-11 08:26N 37°34' E 022°47'0 0.1
2019-Aug-11 07:59N 37°34' E 022°47'0 0.0
2019-Aug-11 07:20N 37°34' E 022°47'0 0.0
2019-Aug-11 06:59N 37°34' E 022°47'0 0.0
2019-Aug-11 06:20N 37°34' E 022°47'0 0.0
2019-Aug-11 05:53N 37°34' E 022°47'0 0.0
2019-Aug-11 05:17N 37°34' E 022°47'0 0.0
2019-Aug-11 04:56N 37°34' E 022°47'0 0.0
2019-Aug-11 04:11N 37°34' E 022°47'0 0.3
2019-Aug-11 03:58N 37°34' E 022°47'5 5.2
2019-Aug-11 02:58N 37°29' E 022°49'14 6.7
2019-Aug-11 00:54N 37°17' E 022°58'9 6.7
2019-Aug-10 23:33N 37°09' E 023°04'0 6.9
2019-Aug-10 23:31N 37°09' E 023°04'3 5.9
2019-Aug-10 22:56N 37°08' E 023°08'3 7.0
2019-Aug-10 22:29N 37°08' E 023°12'36 6.1
2019-Aug-10 16:36N 37°34' E 023°43'1 9.0
2019-Aug-10 16:28N 37°35' E 023°43'4 8.8
2019-Aug-10 16:01N 37°39' E 023°43'510.8
2019-Aug-10 15:31N 37°44' E 023°40'611.1
2019-Aug-10 15:01N 37°49' E 023°37'611.0
2019-Aug-10 14:31N 37°55' E 023°36'2 3.9
2019-Aug-10 13:57N 37°56' E 023°38'0 0.0
2019-Aug-10 13:30N 37°56' E 023°38'0 0.0
2019-Aug-10 13:00N 37°56' E 023°38'0 0.0
2019-Aug-10 12:24N 37°56' E 023°38'0 0.0
2019-Aug-10 11:54N 37°56' E 023°38'0 0.0
2019-Aug-10 11:21N 37°56' E 023°38'0 0.0
2019-Aug-10 11:00N 37°56' E 023°38'0 0.0
2019-Aug-10 10:27N 37°56' E 023°38'0 0.0
2019-Aug-10 10:00N 37°56' E 023°38'0 0.0
2019-Aug-10 09:30N 37°56' E 023°38'0 0.0
2019-Aug-10 09:00N 37°56' E 023°38'0 0.0
2019-Aug-10 08:30N 37°56' E 023°38'0 0.0
2019-Aug-10 08:00N 37°56' E 023°38'0 0.0
2019-Aug-10 07:30N 37°56' E 023°38'0 0.0
2019-Aug-10 07:00N 37°56' E 023°38'0 0.0
2019-Aug-10 06:30N 37°56' E 023°38'0 0.0
2019-Aug-10 05:59N 37°56' E 023°38'0 0.0
2019-Aug-10 05:29N 37°56' E 023°38'0 0.0
2019-Aug-10 04:59N 37°56' E 023°38'0 0.0
2019-Aug-10 04:29N 37°56' E 023°38'0 0.0
2019-Aug-10 04:00N 37°56' E 023°38'1 2.0
2019-Aug-10 03:31N 37°56' E 023°37'1 1.4
2019-Aug-10 03:01N 37°56' E 023°37'2 3.2
2019-Aug-10 02:30N 37°54' E 023°37'3 6.8
2019-Aug-10 02:00N 37°51' E 023°39'3 6.8
2019-Aug-10 01:30N 37°48' E 023°41'3 6.7
2019-Aug-10 01:00N 37°45' E 023°43'4 7.2
2019-Aug-10 00:31N 37°42' E 023°45'4 7.5
2019-Aug-10 00:00N 37°38' E 023°46'4 7.1
2019-Aug-09 23:30N 37°34' E 023°46'510.7
2019-Aug-09 23:00N 37°29' E 023°47'610.6
2019-Aug-09 22:28N 37°24' E 023°44'611.3
2019-Aug-09 21:57N 37°19' E 023°40'45 2.8
2019-Aug-09 05:57N 36°38' E 023°18'4 7.1
2019-Aug-09 05:27N 36°37' E 023°23'3 7.0
2019-Aug-09 05:00N 36°36' E 023°27'4 7.1
2019-Aug-09 04:30N 36°35' E 023°31'4 7.2
2019-Aug-09 04:00N 36°34' E 023°35'4 7.3
2019-Aug-09 03:28N 36°33' E 023°40'15 8.8
2019-Aug-09 01:46N 36°30' E 023°58'  
Track history (hours):
 
Tides and Currents Weather Stations Pressure Air Temp Water Temp Dewpoint Dewpoint Depression Visibility Wind Speed Wind Dir Waves Ship Positions

Wind Star

Operator: Holland America Line

Last reported at 2019-Aug-18 02:02 UTC. Time now 2019-Aug-20 10:15 UTC.
Position N 37°24' E 025°55'.

Length 134 m; draft 4.1 m.

Type: Ship. MMSI: 309163000.

Date/timePositionNaut miles runAvg speedWind from/ knotsBaromVisibWave heightAir tempDewpointWater temp
2019-Aug-18 02:02N 37°24' E 025°55'011.8
2019-Aug-18 02:00N 37°24' E 025°55'611.1
2019-Aug-18 01:30N 37°23' E 025°48'811.2
2019-Aug-18 00:49N 37°22' E 025°38'411.4
2019-Aug-18 00:30N 37°22' E 025°34'511.1
2019-Aug-18 00:00N 37°21' E 025°27'611.3
2019-Aug-17 23:30N 37°21' E 025°20'611.6
2019-Aug-17 23:00N 37°20' E 025°13'611.4
2019-Aug-17 22:29N 37°20' E 025°05'511.3
2019-Aug-17 22:00N 37°19' E 024°58'611.3
2019-Aug-17 21:30N 37°20' E 024°51'510.7
2019-Aug-17 21:00N 37°22' E 024°45'4110.3
2019-Aug-17 17:01N 37°34' E 023°55'011.9
2019-Aug-17 17:00N 37°34' E 023°55'611.1
2019-Aug-17 16:28N 37°36' E 023°48'511.0
2019-Aug-17 16:00N 37°39' E 023°43'511.0
2019-Aug-17 15:30N 37°44' E 023°40'611.3
2019-Aug-17 15:00N 37°49' E 023°37'611.4
2019-Aug-17 14:30N 37°55' E 023°37'2 3.2
2019-Aug-17 13:59N 37°56' E 023°38'0 0.0
2019-Aug-17 13:26N 37°56' E 023°38'0 0.0
2019-Aug-17 12:56N 37°56' E 023°38'0 0.0
2019-Aug-17 12:29N 37°56' E 023°38'0 0.0
2019-Aug-17 11:59N 37°56' E 023°38'0 0.0
2019-Aug-17 11:29N 37°56' E 023°38'0 0.0
2019-Aug-17 10:59N 37°56' E 023°38'0 0.0
2019-Aug-17 10:29N 37°56' E 023°38'0 0.0
2019-Aug-17 09:59N 37°56' E 023°38'0 0.0
2019-Aug-17 09:29N 37°56' E 023°38'0 0.0
2019-Aug-17 08:59N 37°56' E 023°38'0 0.0
2019-Aug-17 08:29N 37°56' E 023°38'0 0.0
2019-Aug-17 07:59N 37°56' E 023°38'0 0.0
2019-Aug-17 07:29N 37°56' E 023°38'0 0.0
2019-Aug-17 06:59N 37°56' E 023°38'0 0.0
2019-Aug-17 06:29N 37°56' E 023°38'0 0.0
2019-Aug-17 05:59N 37°56' E 023°38'0 0.0
2019-Aug-17 05:29N 37°56' E 023°38'0 0.0
2019-Aug-17 04:59N 37°56' E 023°38'0 0.0
2019-Aug-17 04:23N 37°56' E 023°38'0 0.0
2019-Aug-17 03:53N 37°56' E 023°38'0 0.3
2019-Aug-17 03:30N 37°56' E 023°38'2 4.2
2019-Aug-17 03:01N 37°55' E 023°36'2 4.0
2019-Aug-17 02:31N 37°53' E 023°37'3 6.2
2019-Aug-17 02:00N 37°51' E 023°39'3 6.5
2019-Aug-17 01:30N 37°48' E 023°41'3 6.9
2019-Aug-17 01:01N 37°45' E 023°43'4 8.2
2019-Aug-17 00:31N 37°41' E 023°45'4 8.9
2019-Aug-17 00:01N 37°37' E 023°46'4 7.7
2019-Aug-16 23:29N 37°33' E 023°47'510.0
2019-Aug-16 22:59N 37°28' E 023°47'4810.7
2019-Aug-16 18:30N 36°44' E 023°21'5 9.7
2019-Aug-16 18:01N 36°40' E 023°22'1 1.5
2019-Aug-16 17:24N 36°39' E 023°23'5 7.7
2019-Aug-16 16:48N 36°35' E 023°26'7 9.5
2019-Aug-16 16:06N 36°35' E 023°18'110.9
2019-Aug-16 16:00N 36°35' E 023°17'  
2019-Aug-12 07:47N 37°40' E 025°51'411.4
2019-Aug-12 07:28N 37°39' E 025°47'511.2
2019-Aug-12 07:00N 37°39' E 025°40'510.8
2019-Aug-12 06:30N 37°38' E 025°34'5 9.6
2019-Aug-12 06:00N 37°35' E 025°28'4 8.7
2019-Aug-12 05:30N 37°33' E 025°24'4 8.5
2019-Aug-12 05:00N 37°31' E 025°19'3 6.0
2019-Aug-12 04:30N 37°28' E 025°18'1 1.9
2019-Aug-12 03:53N 37°27' E 025°19'2 5.7
2019-Aug-12 03:30N 37°28' E 025°16'5 9.8
2019-Aug-12 03:00N 37°27' E 025°10'4 8.6
2019-Aug-12 02:30N 37°25' E 025°05'4 8.9
2019-Aug-12 02:00N 37°23' E 025°01'4 8.8
2019-Aug-12 01:30N 37°20' E 024°56'5 9.8
2019-Aug-12 01:00N 37°19' E 024°50'77 9.8
2019-Aug-11 17:10N 37°09' E 023°14'210.6
2019-Aug-11 17:00N 37°09' E 023°12'610.8
2019-Aug-11 16:27N 37°08' E 023°05'711.0
2019-Aug-11 15:51N 37°14' E 023°01'2311.5
2019-Aug-11 13:53N 37°34' E 022°47'0 0.2
2019-Aug-11 13:02N 37°34' E 022°47'0 0.0
2019-Aug-11 09:08N 37°34' E 022°47'0 0.0
2019-Aug-11 08:32N 37°34' E 022°47'0 0.1
2019-Aug-11 08:26N 37°34' E 022°47'0 0.1
2019-Aug-11 07:59N 37°34' E 022°47'0 0.0
2019-Aug-11 07:20N 37°34' E 022°47'0 0.0
2019-Aug-11 06:59N 37°34' E 022°47'0 0.0
2019-Aug-11 06:20N 37°34' E 022°47'0 0.0
2019-Aug-11 05:53N 37°34' E 022°47'0 0.0
2019-Aug-11 05:17N 37°34' E 022°47'0 0.0
2019-Aug-11 04:56N 37°34' E 022°47'0 0.0
2019-Aug-11 04:11N 37°34' E 022°47'0 0.3
2019-Aug-11 03:58N 37°34' E 022°47'5 5.2
2019-Aug-11 02:58N 37°29' E 022°49'14 6.7
2019-Aug-11 00:54N 37°17' E 022°58'9 6.7
2019-Aug-10 23:33N 37°09' E 023°04'0 6.9
2019-Aug-10 23:31N 37°09' E 023°04'3 5.9
2019-Aug-10 22:56N 37°08' E 023°08'3 7.0
2019-Aug-10 22:29N 37°08' E 023°12'36 6.1
2019-Aug-10 16:36N 37°34' E 023°43'1 9.0
2019-Aug-10 16:28N 37°35' E 023°43'4 8.8
2019-Aug-10 16:01N 37°39' E 023°43'510.8
2019-Aug-10 15:31N 37°44' E 023°40'611.1
2019-Aug-10 15:01N 37°49' E 023°37'611.0
2019-Aug-10 14:31N 37°55' E 023°36'2 3.9
2019-Aug-10 13:57N 37°56' E 023°38'0 0.0
2019-Aug-10 13:30N 37°56' E 023°38'0 0.0
2019-Aug-10 13:00N 37°56' E 023°38'0 0.0
2019-Aug-10 12:24N 37°56' E 023°38'0 0.0
2019-Aug-10 11:54N 37°56' E 023°38'0 0.0
2019-Aug-10 11:21N 37°56' E 023°38'0 0.0
2019-Aug-10 11:00N 37°56' E 023°38'0 0.0
2019-Aug-10 10:27N 37°56' E 023°38'0 0.0
2019-Aug-10 10:00N 37°56' E 023°38'0 0.0
2019-Aug-10 09:30N 37°56' E 023°38'0 0.0
2019-Aug-10 09:00N 37°56' E 023°38'0 0.0
2019-Aug-10 08:30N 37°56' E 023°38'0 0.0
2019-Aug-10 08:00N 37°56' E 023°38'0 0.0
2019-Aug-10 07:30N 37°56' E 023°38'0 0.0
2019-Aug-10 07:00N 37°56' E 023°38'0 0.0
2019-Aug-10 06:30N 37°56' E 023°38'0 0.0
2019-Aug-10 05:59N 37°56' E 023°38'0 0.0
2019-Aug-10 05:29N 37°56' E 023°38'0 0.0
2019-Aug-10 04:59N 37°56' E 023°38'0 0.0
2019-Aug-10 04:29N 37°56' E 023°38'0 0.0
2019-Aug-10 04:00N 37°56' E 023°38'1 2.0
2019-Aug-10 03:31N 37°56' E 023°37'1 1.4
2019-Aug-10 03:01N 37°56' E 023°37'2 3.2
2019-Aug-10 02:30N 37°54' E 023°37'3 6.8
2019-Aug-10 02:00N 37°51' E 023°39'3 6.8
2019-Aug-10 01:30N 37°48' E 023°41'3 6.7
2019-Aug-10 01:00N 37°45' E 023°43'4 7.2
2019-Aug-10 00:31N 37°42' E 023°45'4 7.5
2019-Aug-10 00:00N 37°38' E 023°46'4 7.1
2019-Aug-09 23:30N 37°34' E 023°46'510.7
2019-Aug-09 23:00N 37°29' E 023°47'610.6
2019-Aug-09 22:28N 37°24' E 023°44'611.3
2019-Aug-09 21:57N 37°19' E 023°40'45 2.8
2019-Aug-09 05:57N 36°38' E 023°18'4 7.1
2019-Aug-09 05:27N 36°37' E 023°23'3 7.0
2019-Aug-09 05:00N 36°36' E 023°27'4 7.1
2019-Aug-09 04:30N 36°35' E 023°31'4 7.2
2019-Aug-09 04:00N 36°34' E 023°35'4 7.3
2019-Aug-09 03:28N 36°33' E 023°40'15 8.8
2019-Aug-09 01:46N 36°30' E 023°58'  

Dump ship's entire track history